MSC Brianna — 3FXG7 — position and weather

sailwx.info

Track history (hours):
 
Tides and Currents Weather Stations Pressure Air Temp Water Temp Dewpoint Dewpoint Depression Visibility Wind Speed Wind Dir Waves Ship Positions

MSC Brianna

Last reported at 2017-May-04 17:24 UTC. Time now 2017-Jul-28 10:51 UTC.
Position N 01°15' E 104°01'.
Warning: this ship's position is months out of date.

Length 245 m; draft 12.4 m.

Type: Ship (hazmat cat A). MMSI: 351766000.

Date/timePositionNaut miles runAvg speedWind from/ knotsBaromVisibWave heightAir tempDewpointWater temp
2017-May-04 17:24N 01°15' E 104°01'2 5.0
2017-May-04 17:00N 01°17' E 104°00'1 2.3
2017-May-04 16:28N 01°18' E 103°59'0 0.0
2017-May-04 15:58N 01°18' E 103°59'0 0.0
2017-May-04 15:25N 01°18' E 103°59'0 0.0
2017-May-04 14:58N 01°18' E 103°59'0 0.0
2017-May-04 13:55N 01°18' E 103°59'0 0.0
2017-May-04 13:28N 01°17' E 103°59'0 0.0
2017-May-04 12:55N 01°17' E 103°59'0 0.0
2017-May-04 12:07N 01°17' E 103°59'0 0.0
2017-May-04 11:55N 01°17' E 103°59'0 0.0
2017-May-04 11:25N 01°17' E 103°59'0 0.0
2017-May-04 10:55N 01°17' E 103°59'0 0.0
2017-May-04 10:25N 01°17' E 103°59'0 0.0
2017-May-04 09:52N 01°18' E 103°59'0 0.1
2017-May-04 09:30N 01°18' E 103°59'0 0.1
2017-May-04 09:01N 01°18' E 103°59'0 0.1
2017-May-04 08:30N 01°18' E 103°59'0 0.0
2017-May-04 08:01N 01°18' E 103°59'0 0.0
2017-May-04 07:30N 01°18' E 103°59'0 0.1
2017-May-04 07:01N 01°18' E 103°59'0 0.0
2017-May-04 06:30N 01°18' E 103°59'1 1.2
2017-May-04 06:00N 01°18' E 104°00'2 3.1
2017-May-04 05:30N 01°16' E 103°59'2 3.1
2017-May-04 05:00N 01°15' E 103°58'1 2.1
2017-May-04 04:30N 01°15' E 103°59'3 5.9
2017-May-04 03:59N 01°14' E 103°56'2 3.5
2017-May-04 03:30N 01°13' E 103°54'3 6.0
2017-May-04 02:59N 01°12' E 103°52'3 5.8
2017-May-04 02:31N 01°10' E 103°49'3 5.8
2017-May-04 02:00N 01°09' E 103°47'4 8.3
2017-May-04 01:31N 01°06' E 103°44'611.4
2017-May-04 00:59N 01°03' E 103°38'511.1
2017-May-04 00:30N 01°06' E 103°34'611.6
2017-May-04 00:00N 01°09' E 103°29'612.0
2017-May-03 23:29N 01°13' E 103°24'6613.7
2017-May-03 18:39N 01°47' E 102°27'214.8
2017-May-03 18:30N 01°48' E 102°25'814.9
2017-May-03 17:58N 01°52' E 102°18'  
Track history (hours):
 
Tides and Currents Weather Stations Pressure Air Temp Water Temp Dewpoint Dewpoint Depression Visibility Wind Speed Wind Dir Waves Ship Positions

MSC Brianna

Last reported at 2017-May-04 17:24 UTC. Time now 2017-Jul-28 10:51 UTC.
Position N 01°15' E 104°01'.
Warning: this ship's position is months out of date.

Length 245 m; draft 12.4 m.

Type: Ship (hazmat cat A). MMSI: 351766000.

Date/timePositionNaut miles runAvg speedWind from/ knotsBaromVisibWave heightAir tempDewpointWater temp
2017-May-04 17:24N 01°15' E 104°01'2 5.0
2017-May-04 17:00N 01°17' E 104°00'1 2.3
2017-May-04 16:28N 01°18' E 103°59'0 0.0
2017-May-04 15:58N 01°18' E 103°59'0 0.0
2017-May-04 15:25N 01°18' E 103°59'0 0.0
2017-May-04 14:58N 01°18' E 103°59'0 0.0
2017-May-04 13:55N 01°18' E 103°59'0 0.0
2017-May-04 13:28N 01°17' E 103°59'0 0.0
2017-May-04 12:55N 01°17' E 103°59'0 0.0
2017-May-04 12:07N 01°17' E 103°59'0 0.0
2017-May-04 11:55N 01°17' E 103°59'0 0.0
2017-May-04 11:25N 01°17' E 103°59'0 0.0
2017-May-04 10:55N 01°17' E 103°59'0 0.0
2017-May-04 10:25N 01°17' E 103°59'0 0.0
2017-May-04 09:52N 01°18' E 103°59'0 0.1
2017-May-04 09:30N 01°18' E 103°59'0 0.1
2017-May-04 09:01N 01°18' E 103°59'0 0.1
2017-May-04 08:30N 01°18' E 103°59'0 0.0
2017-May-04 08:01N 01°18' E 103°59'0 0.0
2017-May-04 07:30N 01°18' E 103°59'0 0.1
2017-May-04 07:01N 01°18' E 103°59'0 0.0
2017-May-04 06:30N 01°18' E 103°59'1 1.2
2017-May-04 06:00N 01°18' E 104°00'2 3.1
2017-May-04 05:30N 01°16' E 103°59'2 3.1
2017-May-04 05:00N 01°15' E 103°58'1 2.1
2017-May-04 04:30N 01°15' E 103°59'3 5.9
2017-May-04 03:59N 01°14' E 103°56'2 3.5
2017-May-04 03:30N 01°13' E 103°54'3 6.0
2017-May-04 02:59N 01°12' E 103°52'3 5.8
2017-May-04 02:31N 01°10' E 103°49'3 5.8
2017-May-04 02:00N 01°09' E 103°47'4 8.3
2017-May-04 01:31N 01°06' E 103°44'611.4
2017-May-04 00:59N 01°03' E 103°38'511.1
2017-May-04 00:30N 01°06' E 103°34'611.6
2017-May-04 00:00N 01°09' E 103°29'612.0
2017-May-03 23:29N 01°13' E 103°24'6613.7
2017-May-03 18:39N 01°47' E 102°27'214.8
2017-May-03 18:30N 01°48' E 102°25'814.9
2017-May-03 17:58N 01°52' E 102°18'  

Dump ship's entire track history